createdAt,value
2023-01-29T00:00:37.649Z,-0.93
2023-01-29T00:03:17.083Z,-0.94
2023-01-29T00:05:59.719Z,-0.98
2023-01-29T00:08:37.410Z,-1.00
2023-01-29T00:11:20.351Z,-0.99
2023-01-29T00:13:58.747Z,-1.00
2023-01-29T00:16:33.680Z,-1.09
2023-01-29T00:19:22.636Z,-1.14
2023-01-29T00:21:57.331Z,-1.10
2023-01-29T00:24:34.051Z,-1.11
2023-01-29T00:27:14.334Z,-1.17
2023-01-29T00:30:07.045Z,-1.26
2023-01-29T00:32:47.824Z,-1.35
2023-01-29T00:35:25.439Z,-1.40
2023-01-29T00:38:01.410Z,-1.42
2023-01-29T00:40:57.407Z,-1.52
2023-01-29T00:43:50.820Z,-1.70
2023-01-29T00:46:28.140Z,-1.79
2023-01-29T00:49:03.651Z,-2.02
2023-01-29T00:51:43.270Z,-2.09
2023-01-29T00:54:18.827Z,-2.02
2023-01-29T00:56:54.485Z,-2.00
2023-01-29T00:59:28.910Z,-1.95
2023-01-29T01:02:23.039Z,-1.92
2023-01-29T01:04:57.665Z,-1.81
2023-01-29T01:07:36.927Z,-1.80
2023-01-29T01:10:25.654Z,-1.77
2023-01-29T01:13:26.451Z,-1.87
2023-01-29T01:16:05.643Z,-1.89
2023-01-29T01:18:48.455Z,-1.94
2023-01-29T01:21:23.313Z,-1.85
2023-01-29T01:23:57.753Z,-1.82
2023-01-29T01:26:32.720Z,-1.91
2023-01-29T01:29:05.070Z,-1.77
2023-01-29T01:31:42.897Z,-1.76
2023-01-29T01:34:27.095Z,-1.74
2023-01-29T01:36:59.757Z,-1.61
2023-01-29T01:39:42.964Z,-1.52
2023-01-29T01:42:15.971Z,-1.60
2023-01-29T01:44:58.632Z,-1.57
2023-01-29T01:47:45.025Z,-1.60
2023-01-29T01:50:35.457Z,-1.49
2023-01-29T01:53:20.049Z,-1.51
2023-01-29T01:56:08.814Z,-1.48
2023-01-29T01:58:50.466Z,-1.55
2023-01-29T02:01:29.305Z,-1.45
2023-01-29T02:04:27.804Z,-1.56
2023-01-29T02:07:23.682Z,-1.36
2023-01-29T02:10:03.200Z,-1.45
2023-01-29T02:12:45.626Z,-1.40
2023-01-29T02:15:26.567Z,-1.47
2023-01-29T02:18:01.385Z,-1.54
2023-01-29T02:20:43.843Z,-1.59
2023-01-29T02:23:51.410Z,-1.59
2023-01-29T02:26:36.447Z,-1.71
2023-01-29T02:29:36.303Z,-1.70
2023-01-29T02:32:28.403Z,-1.82
2023-01-29T02:35:32.075Z,-1.87
2023-01-29T02:38:29.246Z,-1.82
2023-01-29T02:41:07.128Z,-1.92
2023-01-29T02:43:54.703Z,-1.89
2023-01-29T02:46:43.209Z,-1.89
2023-01-29T02:49:32.888Z,-1.81
2023-01-29T02:52:34.538Z,-1.89
2023-01-29T02:55:32.437Z,-1.81
2023-01-29T02:58:50.840Z,-1.92
2023-01-29T03:01:54.271Z,-1.88
2023-01-29T03:04:41.364Z,-1.90
2023-01-29T03:07:37.369Z,-1.99
2023-01-29T03:10:33.770Z,-1.93
2023-01-29T03:13:23.467Z,-1.92
2023-01-29T03:16:07.653Z,-1.86
2023-01-29T03:19:08.257Z,-1.87
2023-01-29T03:22:10.727Z,-1.97
2023-01-29T03:25:13.703Z,-1.90
2023-01-29T03:28:15.460Z,-1.88
2023-01-29T03:31:15.460Z,-1.87
2023-01-29T03:34:01.038Z,-1.74
2023-01-29T03:36:52.316Z,-1.69
2023-01-29T03:39:35.836Z,-1.72
2023-01-29T03:42:27.121Z,-1.63
2023-01-29T03:45:08.222Z,-1.59
2023-01-29T03:48:13.628Z,-1.60
2023-01-29T03:51:15.641Z,-1.54
2023-01-29T03:54:06.414Z,-1.46
2023-01-29T03:56:59.976Z,-1.44
2023-01-29T03:59:41.363Z,-1.48
2023-01-29T04:02:43.141Z,-1.31
2023-01-29T04:05:27.579Z,-1.13
2023-01-29T04:08:19.944Z,-1.18
2023-01-29T04:11:02.687Z,-1.23
2023-01-29T04:13:40.460Z,-1.07
2023-01-29T04:16:16.911Z,-0.99
2023-01-29T04:19:07.916Z,-1.09
2023-01-29T04:21:51.960Z,-1.14
2023-01-29T04:24:30.180Z,-1.20
2023-01-29T04:27:09.090Z,-1.11
2023-01-29T04:29:58.695Z,-1.17
2023-01-29T04:32:48.116Z,-1.07
2023-01-29T04:35:42.513Z,-1.04
2023-01-29T04:38:51.981Z,-1.03
2023-01-29T04:41:33.759Z,-0.99
2023-01-29T04:44:14.785Z,-0.99
2023-01-29T04:46:59.445Z,-0.98
2023-01-29T04:49:45.276Z,-1.02
2023-01-29T04:52:44.955Z,-1.03
2023-01-29T04:56:06.943Z,-0.92
2023-01-29T04:58:49.661Z,-0.89
2023-01-29T05:01:28.421Z,-0.91
2023-01-29T05:04:12.112Z,-0.86
2023-01-29T05:06:46.689Z,-0.89
2023-01-29T05:09:29.045Z,-0.91
2023-01-29T05:12:08.162Z,-0.90
2023-01-29T05:14:45.762Z,-0.85
2023-01-29T05:17:22.318Z,-0.81
2023-01-29T05:19:56.844Z,-0.75
2023-01-29T05:22:38.477Z,-0.71
2023-01-29T05:25:35.255Z,-0.76
2023-01-29T05:28:19.202Z,-0.66
2023-01-29T05:30:58.433Z,-0.75
2023-01-29T05:33:33.236Z,-0.67
2023-01-29T05:36:10.202Z,-0.76
2023-01-29T05:38:45.071Z,-0.69
2023-01-29T05:41:17.564Z,-0.70
2023-01-29T05:43:52.914Z,-0.72
2023-01-29T05:46:28.489Z,-0.69
2023-01-29T05:49:08.869Z,-0.63
2023-01-29T05:51:47.446Z,-0.76
2023-01-29T05:54:30.343Z,-0.72
2023-01-29T05:57:04.590Z,-0.73
2023-01-29T05:59:39.699Z,-0.78
2023-01-29T06:02:16.206Z,-0.76
2023-01-29T06:04:55.985Z,-0.71
2023-01-29T06:07:36.317Z,-0.69
2023-01-29T06:10:09.404Z,-0.70
2023-01-29T06:12:49.501Z,-0.70
2023-01-29T06:15:29.405Z,-0.75
2023-01-29T06:18:02.333Z,-0.76
2023-01-29T06:20:35.432Z,-0.70
2023-01-29T06:23:13.520Z,-0.67
2023-01-29T06:25:48.482Z,-0.62
2023-01-29T06:28:26.326Z,-0.60
2023-01-29T06:31:22.197Z,-0.56
2023-01-29T06:34:04.582Z,-0.58
2023-01-29T06:36:45.219Z,-0.57
2023-01-29T06:39:17.482Z,-0.66
2023-01-29T06:41:51.670Z,-0.60
2023-01-29T06:44:28.888Z,-0.49
2023-01-29T06:47:09.235Z,-0.52
2023-01-29T06:49:44.681Z,-0.49
2023-01-29T06:52:19.858Z,-0.54
2023-01-29T06:54:57.494Z,-0.46
2023-01-29T06:57:39.922Z,-0.44
2023-01-29T07:00:17.286Z,-0.44
2023-01-29T07:02:57.892Z,-0.41
2023-01-29T07:05:32.914Z,-0.55
2023-01-29T07:08:13.904Z,-0.40
2023-01-29T07:10:45.778Z,-0.31
2023-01-29T07:13:29.533Z,-0.34
2023-01-29T07:16:07.148Z,-0.23
2023-01-29T07:18:44.966Z,-0.35
2023-01-29T07:21:21.102Z,-0.36
2023-01-29T07:23:56.580Z,-0.35
2023-01-29T07:26:29.353Z,-0.44
2023-01-29T07:29:06.691Z,-0.36
2023-01-29T07:31:47.506Z,-0.37
2023-01-29T07:34:22.394Z,-0.24
2023-01-29T07:37:06.680Z,-0.24
2023-01-29T07:39:46.539Z,-0.18
2023-01-29T07:42:24.601Z,-0.18
2023-01-29T07:44:54.175Z,-0.16
2023-01-29T07:47:29.215Z,-0.14
2023-01-29T07:50:09.278Z,-0.26
2023-01-29T07:52:49.967Z,-0.16
2023-01-29T07:55:28.678Z,-0.03
2023-01-29T07:58:07.795Z,0.07
2023-01-29T08:00:42.031Z,0.07
2023-01-29T08:03:21.347Z,0.02
2023-01-29T08:06:03.780Z,0.15
2023-01-29T08:08:35.939Z,0.09
2023-01-29T08:11:07.811Z,0.25
2023-01-29T08:13:48.639Z,0.18
2023-01-29T08:16:22.823Z,0.25
2023-01-29T08:19:04.113Z,0.26
2023-01-29T08:21:39.216Z,0.16
2023-01-29T08:24:16.503Z,0.35
2023-01-29T08:26:54.187Z,0.34
2023-01-29T08:29:26.363Z,0.13
2023-01-29T08:32:11.263Z,0.00
2023-01-29T08:34:48.626Z,0.03
2023-01-29T08:37:29.492Z,0.12
2023-01-29T08:40:03.296Z,0.04
2023-01-29T08:42:41.576Z,0.05
2023-01-29T08:45:22.955Z,0.12
2023-01-29T08:47:59.393Z,0.10
2023-01-29T08:50:34.453Z,-0.04
2023-01-29T08:53:18.885Z,0.02
2023-01-29T08:55:55.658Z,0.10
2023-01-29T08:58:33.970Z,-0.10
2023-01-29T09:01:15.235Z,-0.12
2023-01-29T09:03:54.823Z,-0.01
2023-01-29T09:06:29.417Z,-0.04
2023-01-29T09:09:12.751Z,0.02
2023-01-29T09:11:53.176Z,0.12
2023-01-29T09:14:44.769Z,0.13
2023-01-29T09:17:20.001Z,-0.12
2023-01-29T09:19:58.758Z,-0.03
2023-01-29T09:22:36.926Z,0.05
2023-01-29T09:25:12.857Z,0.18
2023-01-29T09:27:46.172Z,0.15
2023-01-29T09:30:23.152Z,0.20
2023-01-29T09:32:57.574Z,0.25
2023-01-29T09:35:35.444Z,0.34
2023-01-29T09:38:10.396Z,0.31
2023-01-29T09:41:16.214Z,0.20
2023-01-29T09:43:58.675Z,0.14
2023-01-29T09:46:40.844Z,0.29
2023-01-29T09:49:25.663Z,0.29
2023-01-29T09:52:24.038Z,0.25
2023-01-29T09:55:17.310Z,0.14
2023-01-29T09:57:57.675Z,0.21
2023-01-29T10:00:56.328Z,0.30
2023-01-29T10:03:46.602Z,0.38
2023-01-29T10:06:38.439Z,0.46
2023-01-29T10:09:37.091Z,0.45
2023-01-29T10:12:32.456Z,0.28
2023-01-29T10:15:13.916Z,0.18
2023-01-29T10:17:57.847Z,0.25
2023-01-29T10:21:02.645Z,0.27
2023-01-29T10:23:44.707Z,0.19
2023-01-29T10:26:28.493Z,0.16
2023-01-29T10:29:05.694Z,0.20
2023-01-29T10:31:42.502Z,0.16
2023-01-29T10:34:46.475Z,0.26
2023-01-29T10:37:40.662Z,0.35
2023-01-29T10:40:47.005Z,0.29
2023-01-29T10:43:58.095Z,0.39
2023-01-29T10:47:05.796Z,0.40
2023-01-29T10:50:00.459Z,0.40
2023-01-29T10:53:27.243Z,0.42
2023-01-29T10:56:27.157Z,0.47
2023-01-29T10:59:18.244Z,0.43
2023-01-29T11:01:57.386Z,0.38
2023-01-29T11:04:34.868Z,0.46
2023-01-29T11:07:10.608Z,0.33
2023-01-29T11:10:10.907Z,0.39
2023-01-29T11:12:52.464Z,0.31
2023-01-29T11:15:57.426Z,0.26
2023-01-29T11:19:01.637Z,0.31
2023-01-29T11:21:36.625Z,0.37
2023-01-29T11:24:21.417Z,0.29
2023-01-29T11:26:59.177Z,0.27
2023-01-29T11:30:03.062Z,0.32
2023-01-29T11:32:49.030Z,0.33
2023-01-29T11:35:32.841Z,0.43
2023-01-29T11:38:25.613Z,0.41
2023-01-29T11:41:22.324Z,0.37
2023-01-29T11:44:01.797Z,0.36
2023-01-29T11:46:40.333Z,0.39
2023-01-29T11:49:49.743Z,0.25
2023-01-29T11:52:37.584Z,0.24
2023-01-29T11:55:21.443Z,0.37
2023-01-29T11:58:02.208Z,0.38
2023-01-29T12:00:50.625Z,0.41
2023-01-29T12:03:48.399Z,0.32
2023-01-29T12:06:35.167Z,0.44
2023-01-29T12:09:16.828Z,0.26
2023-01-29T12:11:50.032Z,0.14
2023-01-29T12:14:34.239Z,0.09
2023-01-29T12:17:27.909Z,0.26
2023-01-29T12:20:10.343Z,0.16
2023-01-29T12:23:08.755Z,0.13
2023-01-29T12:26:07.399Z,0.22
2023-01-29T12:28:45.812Z,0.33
2023-01-29T12:31:35.970Z,0.20
2023-01-29T12:34:27.409Z,0.17
2023-01-29T12:37:06.930Z,0.08
2023-01-29T12:39:47.220Z,0.11
2023-01-29T12:42:32.403Z,0.18
2023-01-29T12:45:18.776Z,0.22
2023-01-29T12:48:19.977Z,0.14
2023-01-29T12:51:09.685Z,0.27
2023-01-29T12:53:56.336Z,0.12
2023-01-29T12:56:39.884Z,0.17
2023-01-29T12:59:49.681Z,0.08
2023-01-29T13:02:40.939Z,0.19
2023-01-29T13:05:31.284Z,0.25
2023-01-29T13:08:29.238Z,0.17
2023-01-29T13:11:25.861Z,0.09
2023-01-29T13:14:26.720Z,0.20
2023-01-29T13:17:19.142Z,0.32
2023-01-29T13:20:01.305Z,-0.04
2023-01-29T13:22:48.281Z,0.14
2023-01-29T13:25:28.482Z,0.20
2023-01-29T13:28:08.796Z,0.27
2023-01-29T13:30:45.752Z,0.29
2023-01-29T13:33:30.938Z,0.21
2023-01-29T13:36:11.090Z,0.07
2023-01-29T13:38:49.199Z,0.14
2023-01-29T13:41:50.039Z,0.19
2023-01-29T13:44:38.176Z,0.11
2023-01-29T13:47:15.282Z,0.11
2023-01-29T13:50:10.681Z,0.22
2023-01-29T13:53:09.007Z,0.24
2023-01-29T13:55:46.596Z,0.03
2023-01-29T13:58:49.411Z,0.25
2023-01-29T14:01:21.207Z,0.20
2023-01-29T14:04:05.926Z,0.13
2023-01-29T14:06:53.037Z,0.22
2023-01-29T14:09:55.392Z,-0.06
2023-01-29T14:12:27.698Z,-0.16
2023-01-29T14:15:32.223Z,-0.10
2023-01-29T14:18:25.524Z,-0.02
2023-01-29T14:21:21.609Z,-0.03
2023-01-29T14:24:05.166Z,-0.20
2023-01-29T14:26:49.150Z,-0.32
2023-01-29T14:29:35.435Z,-0.24
2023-01-29T14:32:22.302Z,-0.23
2023-01-29T14:35:24.503Z,-0.08
2023-01-29T14:38:04.964Z,-0.11
2023-01-29T14:40:42.561Z,-0.15
2023-01-29T14:43:28.884Z,-0.14
2023-01-29T14:46:40.173Z,-0.35
2023-01-29T14:49:20.796Z,-0.36
2023-01-29T14:51:56.109Z,-0.30
2023-01-29T14:54:38.490Z,-0.37
2023-01-29T14:57:17.734Z,-0.40
2023-01-29T14:59:58.218Z,-0.41
2023-01-29T15:03:01.392Z,-0.33
2023-01-29T15:05:42.189Z,-0.36
2023-01-29T15:08:31.744Z,-0.73
2023-01-29T15:11:36.050Z,-0.73
2023-01-29T15:14:31.841Z,-0.67
2023-01-29T15:17:24.887Z,-0.70
2023-01-29T15:20:16.781Z,-0.66
2023-01-29T15:22:58.711Z,-0.70
2023-01-29T15:25:49.470Z,-0.77
2023-01-29T15:28:39.992Z,-0.77
2023-01-29T15:31:17.236Z,-0.97
2023-01-29T15:33:58.201Z,-0.95
2023-01-29T15:36:40.870Z,-0.93
2023-01-29T15:39:25.109Z,-0.91
2023-01-29T15:42:26.034Z,-0.86
2023-01-29T15:45:04.255Z,-0.92
2023-01-29T15:47:40.162Z,-0.94
2023-01-29T15:50:24.819Z,-1.19
2023-01-29T15:53:09.832Z,-1.19
2023-01-29T15:55:42.038Z,-1.18
2023-01-29T15:58:35.045Z,-1.22
2023-01-29T16:01:16.658Z,-1.21
2023-01-29T16:03:54.625Z,-1.11
2023-01-29T16:06:30.781Z,-1.22
2023-01-29T16:09:17.828Z,-1.33
2023-01-29T16:11:48.445Z,-1.30
2023-01-29T16:14:31.790Z,-1.22
2023-01-29T16:17:26.190Z,-1.24
2023-01-29T16:20:07.760Z,-1.25
2023-01-29T16:22:46.092Z,-1.22
2023-01-29T16:25:16.916Z,-1.15
2023-01-29T16:27:54.688Z,-1.14
2023-01-29T16:30:43.900Z,-1.18
2023-01-29T16:33:19.785Z,-1.23
2023-01-29T16:36:00.758Z,-1.28
2023-01-29T16:38:43.307Z,-1.26
2023-01-29T16:41:51.219Z,-1.37
2023-01-29T16:44:46.203Z,-1.31
2023-01-29T16:47:32.953Z,-1.44
2023-01-29T16:50:53.929Z,-1.45
2023-01-29T16:53:27.445Z,-1.52
2023-01-29T16:55:59.876Z,-1.48
2023-01-29T16:58:37.271Z,-1.60
2023-01-29T17:01:19.686Z,-1.51
2023-01-29T17:04:05.128Z,-1.47
2023-01-29T17:06:47.299Z,-1.57
2023-01-29T17:09:36.023Z,-1.62
2023-01-29T17:12:21.209Z,-1.63
2023-01-29T17:15:03.112Z,-1.73
2023-01-29T17:17:39.492Z,-1.79
2023-01-29T17:20:19.160Z,-1.73
2023-01-29T17:23:05.310Z,-1.77
2023-01-29T17:25:39.094Z,-1.67
2023-01-29T17:28:18.619Z,-1.82
2023-01-29T17:31:05.271Z,-1.78
2023-01-29T17:33:53.242Z,-1.75
2023-01-29T17:36:41.141Z,-1.89
2023-01-29T17:39:26.604Z,-1.92
2023-01-29T17:42:06.564Z,-2.10
2023-01-29T17:44:42.684Z,-2.10
2023-01-29T17:47:26.183Z,-2.11
2023-01-29T17:49:58.562Z,-2.13
2023-01-29T17:52:33.180Z,-2.28
2023-01-29T17:55:11.419Z,-2.48
2023-01-29T17:57:49.362Z,-2.50
2023-01-29T18:00:26.012Z,-2.49
2023-01-29T18:03:10.074Z,-2.44
2023-01-29T18:05:45.082Z,-2.47
2023-01-29T18:08:29.704Z,-2.55
2023-01-29T18:11:15.625Z,-2.70
2023-01-29T18:13:54.162Z,-2.82
2023-01-29T18:16:30.071Z,-2.73
2023-01-29T18:19:23.747Z,-2.84
2023-01-29T18:22:04.691Z,-2.76
2023-01-29T18:24:45.521Z,-2.76
2023-01-29T18:27:25.550Z,-2.65
2023-01-29T18:29:58.359Z,-2.69
2023-01-29T18:32:36.423Z,-2.75
2023-01-29T18:35:16.298Z,-2.78
2023-01-29T18:37:51.378Z,-2.84
2023-01-29T18:40:29.413Z,-3.06
2023-01-29T18:43:04.314Z,-2.86
2023-01-29T18:45:41.239Z,-2.98
2023-01-29T18:48:21.625Z,-3.06
2023-01-29T18:50:59.424Z,-2.99
2023-01-29T18:53:29.470Z,-2.96
2023-01-29T18:56:08.911Z,-2.94
2023-01-29T18:58:52.635Z,-3.18
2023-01-29T19:01:30.880Z,-3.22
2023-01-29T19:04:07.053Z,-3.31
2023-01-29T19:06:49.671Z,-3.18
2023-01-29T19:09:27.129Z,-3.32
2023-01-29T19:12:05.512Z,-3.16
2023-01-29T19:14:49.144Z,-3.18
2023-01-29T19:17:21.466Z,-3.20
2023-01-29T19:19:56.343Z,-3.31
2023-01-29T19:22:34.953Z,-3.33
2023-01-29T19:25:12.677Z,-3.29
2023-01-29T19:27:55.631Z,-3.28
2023-01-29T19:30:32.204Z,-3.34
2023-01-29T19:33:09.165Z,-3.55
2023-01-29T19:35:52.490Z,-3.53
2023-01-29T19:38:27.670Z,-3.58
2023-01-29T19:41:06.965Z,-3.45
2023-01-29T19:43:45.850Z,-3.42
2023-01-29T19:46:23.884Z,-3.44
2023-01-29T19:48:58.899Z,-3.47
2023-01-29T19:51:46.769Z,-3.48
2023-01-29T19:54:24.316Z,-3.56
2023-01-29T19:57:10.541Z,-3.69
2023-01-29T19:59:50.888Z,-3.76
2023-01-29T20:02:28.309Z,-3.84
2023-01-29T20:05:05.593Z,-3.85
2023-01-29T20:07:42.416Z,-3.85
2023-01-29T20:10:22.509Z,-3.85
2023-01-29T20:12:57.376Z,-3.88
2023-01-29T20:15:30.095Z,-3.87
2023-01-29T20:18:11.778Z,-3.78
2023-01-29T20:20:54.812Z,-4.01
2023-01-29T20:23:38.470Z,-4.15
2023-01-29T20:26:15.075Z,-4.06
2023-01-29T20:29:08.217Z,-4.17
2023-01-29T20:31:43.590Z,-4.30
2023-01-29T20:34:15.940Z,-4.41
2023-01-29T20:36:55.951Z,-4.26
2023-01-29T20:39:35.738Z,-4.37
2023-01-29T20:42:26.471Z,-4.37
2023-01-29T20:45:13.732Z,-4.44
2023-01-29T20:47:51.280Z,-4.46
2023-01-29T20:50:28.447Z,-4.43
2023-01-29T20:53:11.629Z,-4.45
2023-01-29T20:56:02.219Z,-4.42
2023-01-29T20:58:42.138Z,-4.47
2023-01-29T21:01:24.576Z,-4.55
2023-01-29T21:04:05.660Z,-4.62
2023-01-29T21:06:43.616Z,-4.64
2023-01-29T21:09:27.055Z,-4.67
2023-01-29T21:12:10.476Z,-4.72
2023-01-29T21:14:46.125Z,-4.75
2023-01-29T21:17:23.679Z,-4.66
2023-01-29T21:20:07.351Z,-4.73
2023-01-29T21:22:36.783Z,-4.71
2023-01-29T21:25:17.480Z,-4.64
2023-01-29T21:27:57.871Z,-4.70
2023-01-29T21:30:33.931Z,-4.59
2023-01-29T21:33:06.343Z,-4.62
2023-01-29T21:35:48.809Z,-4.57
2023-01-29T21:38:24.137Z,-4.64
2023-01-29T21:41:06.332Z,-4.62
2023-01-29T21:43:46.946Z,-4.53
2023-01-29T21:46:19.096Z,-4.62
2023-01-29T21:49:06.923Z,-4.58
2023-01-29T21:51:45.113Z,-4.42
2023-01-29T21:54:31.195Z,-4.51
2023-01-29T21:57:09.471Z,-4.52
2023-01-29T21:59:42.197Z,-4.60
2023-01-29T22:02:27.333Z,-4.55
2023-01-29T22:05:17.694Z,-4.59
2023-01-29T22:08:04.781Z,-4.73
2023-01-29T22:10:39.870Z,-4.75
2023-01-29T22:13:17.712Z,-4.75
2023-01-29T22:16:03.113Z,-4.61
2023-01-29T22:18:43.518Z,-4.54
2023-01-29T22:21:23.786Z,-4.56
2023-01-29T22:24:03.653Z,-4.70
2023-01-29T22:26:39.168Z,-4.55
2023-01-29T22:29:24.278Z,-4.57
2023-01-29T22:31:59.064Z,-4.51
2023-01-29T22:34:44.571Z,-4.37
2023-01-29T22:37:31.098Z,-4.43
2023-01-29T22:40:05.759Z,-4.44
2023-01-29T22:42:46.464Z,-4.49
2023-01-29T22:45:29.700Z,-4.53
2023-01-29T22:48:13.467Z,-4.50
2023-01-29T22:51:10.496Z,-4.56
2023-01-29T22:53:54.427Z,-4.66
2023-01-29T22:56:30.637Z,-4.62
2023-01-29T22:59:22.711Z,-4.49
2023-01-29T23:02:08.731Z,-4.51
2023-01-29T23:04:49.088Z,-4.57
2023-01-29T23:07:21.096Z,-4.65
2023-01-29T23:10:01.505Z,-4.71
2023-01-29T23:12:46.967Z,-4.73
2023-01-29T23:15:33.422Z,-4.70
2023-01-29T23:18:08.657Z,-4.81
2023-01-29T23:20:49.581Z,-4.90
2023-01-29T23:23:27.001Z,-5.04
2023-01-29T23:26:30.243Z,-5.07
2023-01-29T23:29:10.866Z,-5.07
2023-01-29T23:31:50.893Z,-5.08
2023-01-29T23:34:30.864Z,-5.24
2023-01-29T23:37:10.648Z,-5.28
2023-01-29T23:39:45.603Z,-5.31
2023-01-29T23:42:34.890Z,-5.32
2023-01-29T23:45:21.567Z,-5.40
2023-01-29T23:47:59.453Z,-5.42
2023-01-29T23:50:32.118Z,-5.45
2023-01-29T23:53:26.082Z,-5.49
2023-01-29T23:56:07.611Z,-5.49
2023-01-29T23:58:45.763Z,-5.53
